»·PEaware :: DAL213 KASE-KJAC

DAL213 :: KASE-KJAC

FLIGHT INFORMATION

Flight Status: Arrived
Operator:
Delta Air Lines
More flights by this operator :: More flights under this callsign
Pilot: Nicolas L. (9332)
Aircraft: BOEING 737-800
(B738)
More flights by this aircraft type
Origin: KASE Aspen-Pitkin Co/Sardy
United States
Destination: KJAC Jackson Hole
United States
More flights between these airports :: More routes between these airports
Route: PITKN4 EKR DNW
File this flight plan on PilotEdge
Remarks: Live Streaming on Twith "DAL213" and YT
Altitude:
(Current/Filed)
32,000ft
Speed:
(Current/Filed)
400kts
Departed: 16-May-18 07:11 PM
Arrived: 16-May-18 08:17 PM
Distance/Time
Traveled:
315nm/1:06
Distance/Time
To Go:
Arrived

Flight Plot

Page will automatically refresh every two minutes.

Flight plan parsing failed; only flown route is shown


Map Options




Map Legend


Flown Route
Filed Route
Departure Airport
Arrival Airport
Navaid (VOR, NDB)
Fix

Horizontal Profiles

Position Reports

Time Latitude Longitude Heading Altitude Ground
Speed
16-May-18 18:52 39.218856 -106.864376 159 7745ft 0kts
16-May-18 18:53 39.218856 -106.864376 159 7745ft 0kts
16-May-18 18:54 39.218856 -106.864376 159 7745ft 0kts
16-May-18 18:55 39.218856 -106.864376 159 7745ft 0kts
16-May-18 18:56 39.218856 -106.864376 159 7745ft 0kts
16-May-18 18:57 39.218856 -106.864376 159 7745ft 0kts
16-May-18 18:58 39.218856 -106.864376 159 7745ft 0kts
16-May-18 18:59 39.218856 -106.864376 159 7745ft 0kts
16-May-18 19:00 39.218856 -106.864376 159 7745ft 0kts
16-May-18 19:01 39.218856 -106.864376 159 7745ft 0kts
16-May-18 19:02 39.218856 -106.864376 159 7745ft 0kts
16-May-18 19:03 39.218856 -106.864376 159 7745ft 0kts
16-May-18 19:04 39.218856 -106.864376 159 7745ft 0kts
16-May-18 19:05 39.218856 -106.864376 159 7745ft 0kts
16-May-18 19:06 39.218856 -106.864376 159 7745ft 0kts
16-May-18 19:07 39.218154 -106.864819 219 7745ft 10kts
16-May-18 19:08 39.214163 -106.863429 159 7745ft 20kts
16-May-18 19:09 39.212279 -106.862545 175 7745ft 0kts
16-May-18 19:10 39.212277 -106.862545 175 7745ft 0kts
16-May-18 19:11 39.216359 -106.865665 342 7745ft 96kts
16-May-18 19:12 39.260525 -106.882695 355 8965ft 204kts
16-May-18 19:13 39.303022 -106.934876 292 10939ft 258kts
16-May-18 19:14 39.338390 -107.028958 294 12636ft 323kts
16-May-18 19:15 39.379873 -107.142498 281 14668ft 363kts
16-May-18 19:16 39.366627 -107.270532 253 17712ft 365kts
16-May-18 19:17 39.341715 -107.399607 253 20616ft 376kts
16-May-18 19:18 39.315687 -107.532548 255 23067ft 388kts
16-May-18 19:19 39.365703 -107.650159 329 25331ft 427kts
16-May-18 19:20 39.481615 -107.700583 338 26918ft 448kts
16-May-18 19:21 39.602292 -107.747609 339 28417ft 458kts
16-May-18 19:22 39.725860 -107.794465 338 29679ft 465kts
16-May-18 19:23 39.850832 -107.842044 338 30717ft 471kts
16-May-18 19:24 39.976712 -107.890153 338 31852ft 469kts
16-May-18 19:25 40.099425 -107.945270 332 32016ft 460kts
16-May-18 19:26 40.215399 -108.014163 330 32037ft 458kts
16-May-18 19:27 40.331471 -108.084215 329 32029ft 458kts
16-May-18 19:28 40.447074 -108.154406 329 32011ft 459kts
16-May-18 19:29 40.562869 -108.224966 329 32021ft 460kts
16-May-18 19:30 40.679203 -108.296135 329 32021ft 460kts
16-May-18 19:31 40.795287 -108.367421 329 32023ft 461kts
16-May-18 19:32 40.911954 -108.439308 329 32029ft 461kts
16-May-18 19:33 41.028237 -108.511310 328 32035ft 463kts
16-May-18 19:34 41.125336 -108.571588 329 32047ft 463kts
16-May-18 19:35 41.242253 -108.644501 329 32042ft 463kts
16-May-18 19:36 41.358798 -108.717402 328 32047ft 463kts
16-May-18 19:37 41.475138 -108.790545 328 32042ft 463kts
16-May-18 19:38 41.591406 -108.863880 328 30247ft 460kts
16-May-18 19:39 41.707962 -108.937686 329 26414ft 469kts
16-May-18 19:40 41.825263 -109.012255 329 24066ft 451kts
16-May-18 19:41 41.937548 -109.083987 329 24059ft 446kts
16-May-18 19:42 42.049344 -109.155653 329 24059ft 445kts
16-May-18 19:43 42.161457 -109.227815 329 24056ft 445kts
16-May-18 19:44 42.273130 -109.299963 329 24060ft 446kts
16-May-18 19:45 42.384793 -109.372366 329 24066ft 446kts
16-May-18 19:46 42.496847 -109.445345 329 24083ft 446kts
16-May-18 19:47 42.608397 -109.518290 329 24098ft 445kts
16-May-18 19:48 42.719301 -109.592140 323 23025ft 435kts
16-May-18 19:49 42.774877 -109.723166 278 20529ft 395kts
16-May-18 19:50 42.797532 -109.865371 276 19148ft 376kts
16-May-18 19:51 42.818759 -110.005309 277 19103ft 377kts
16-May-18 19:52 42.859160 -110.135743 325 20245ft 385kts
16-May-18 19:53 42.966854 -110.125428 11 19664ft 413kts
16-May-18 19:54 43.009424 -110.111385 11 19471ft 396kts
16-May-18 19:55 43.009424 -110.111385 11 19471ft 396kts
16-May-18 19:56 43.009424 -110.111385 11 19471ft 396kts
16-May-18 19:57 43.092734 -110.082528 11 19064ft 411kts
16-May-18 19:58 43.194154 -110.017976 58 19145ft 414kts
16-May-18 19:59 43.252636 -109.880731 61 19129ft 417kts
16-May-18 20:00 43.343292 -109.802398 344 19145ft 413kts
16-May-18 20:01 43.395865 -109.912115 248 19141ft 362kts
16-May-18 20:02 43.353434 -110.036970 241 19129ft 360kts
16-May-18 20:03 43.310028 -110.160768 241 18786ft 356kts
16-May-18 20:04 43.267614 -110.282399 241 16528ft 349kts
16-May-18 20:05 43.225780 -110.400816 241 14205ft 341kts
16-May-18 20:06 43.184798 -110.515757 241 13990ft 341kts
16-May-18 20:07 43.143936 -110.630029 242 12991ft 334kts
16-May-18 20:08 43.102864 -110.745852 247 12961ft 341kts
16-May-18 20:09 43.148408 -110.847705 340 12996ft 370kts
16-May-18 20:10 43.246088 -110.875204 348 12707ft 330kts
16-May-18 20:11 43.330062 -110.869870 20 11768ft 297kts
16-May-18 20:12 43.405315 -110.833470 14 10518ft 279kts
16-May-18 20:13 43.466807 -110.804596 17 9388ft 195kts
16-May-18 20:14 43.512423 -110.783567 17 8282ft 168kts
16-May-18 20:15 43.555277 -110.762901 13 7379ft 151kts
16-May-18 20:16 43.593162 -110.744653 20 6582ft 145kts
16-May-18 20:17 43.614783 -110.734114 24 6460ft 16kts
16-May-18 20:18 43.612570 -110.733615 198 6460ft 18kts
16-May-18 20:19 43.607114 -110.736277 198 6460ft 14kts
16-May-18 20:20 43.605257 -110.737185 200 6460ft 0kts
16-May-18 20:21 43.604264 -110.736728 109 6460ft 0kts
16-May-18 20:22 43.604264 -110.736728 109 6460ft 0kts
16-May-18 20:23 43.604264 -110.736728 109 6460ft 0kts
16-May-18 20:24 43.604264 -110.736728 109 6460ft 0kts
16-May-18 20:25 43.604264 -110.736728 109 6460ft 0kts
16-May-18 20:26 43.604264 -110.736728 109 6460ft 0kts
16-May-18 20:27 43.604264 -110.736728 109 6460ft 0kts
16-May-18 20:28 43.604264 -110.736728 109 6460ft 0kts
16-May-18 20:29 43.604264 -110.736728 109 6460ft 0kts
16-May-18 20:30 43.604264 -110.736728 109 6460ft 0kts
16-May-18 20:31 43.604264 -110.736728 109 6460ft 0kts

Navigation Log

Ident Type
Flight plan parsing failed, navigation log unavailable